sensor_id;sensor_type;location;lat;lon;timestamp;P1;durP1;ratioP1;P2;durP2;ratioP2
13785;SDS011;47474;48.824;9.384;2024-02-21T00:01:43;10.13;;;3.73;;
13785;SDS011;47474;48.824;9.384;2024-02-21T00:04:09;5.37;;;2.90;;
13785;SDS011;47474;48.824;9.384;2024-02-21T00:06:37;6.40;;;3.27;;
13785;SDS011;47474;48.824;9.384;2024-02-21T00:09:04;5.87;;;2.90;;
13785;SDS011;47474;48.824;9.384;2024-02-21T00:11:30;9.13;;;3.27;;
13785;SDS011;47474;48.824;9.384;2024-02-21T00:13:56;7.77;;;3.90;;
13785;SDS011;47474;48.824;9.384;2024-02-21T00:16:23;5.80;;;3.30;;
13785;SDS011;47474;48.824;9.384;2024-02-21T00:18:49;6.27;;;3.30;;
13785;SDS011;47474;48.824;9.384;2024-02-21T00:21:16;4.83;;;2.90;;
13785;SDS011;47474;48.824;9.384;2024-02-21T00:23:45;6.73;;;3.03;;
13785;SDS011;47474;48.824;9.384;2024-02-21T00:26:11;5.37;;;3.10;;
13785;SDS011;47474;48.824;9.384;2024-02-21T00:28:38;5.37;;;2.67;;
13785;SDS011;47474;48.824;9.384;2024-02-21T00:31:07;7.43;;;3.20;;
13785;SDS011;47474;48.824;9.384;2024-02-21T00:33:33;9.10;;;3.47;;
13785;SDS011;47474;48.824;9.384;2024-02-21T00:36:00;7.60;;;3.50;;
13785;SDS011;47474;48.824;9.384;2024-02-21T00:38:27;6.27;;;3.23;;
13785;SDS011;47474;48.824;9.384;2024-02-21T00:40:55;6.83;;;3.60;;
13785;SDS011;47474;48.824;9.384;2024-02-21T00:43:21;7.13;;;3.27;;
13785;SDS011;47474;48.824;9.384;2024-02-21T00:45:49;3.93;;;2.83;;
13785;SDS011;47474;48.824;9.384;2024-02-21T00:48:15;6.40;;;3.33;;
13785;SDS011;47474;48.824;9.384;2024-02-21T00:50:42;7.50;;;3.37;;
13785;SDS011;47474;48.824;9.384;2024-02-21T00:53:08;4.60;;;3.10;;
13785;SDS011;47474;48.824;9.384;2024-02-21T00:55:35;7.70;;;3.50;;
13785;SDS011;47474;48.824;9.384;2024-02-21T00:58:03;6.63;;;3.13;;
13785;SDS011;47474;48.824;9.384;2024-02-21T01:00:30;4.53;;;3.23;;
13785;SDS011;47474;48.824;9.384;2024-02-21T01:02:57;7.00;;;3.13;;
13785;SDS011;47474;48.824;9.384;2024-02-21T01:05:23;5.70;;;3.70;;
13785;SDS011;47474;48.824;9.384;2024-02-21T01:07:49;5.80;;;3.13;;
13785;SDS011;47474;48.824;9.384;2024-02-21T01:10:16;5.10;;;3.20;;
13785;SDS011;47474;48.824;9.384;2024-02-21T01:12:42;7.53;;;3.43;;
13785;SDS011;47474;48.824;9.384;2024-02-21T01:15:10;4.73;;;3.13;;
13785;SDS011;47474;48.824;9.384;2024-02-21T01:17:37;6.63;;;3.00;;
13785;SDS011;47474;48.824;9.384;2024-02-21T01:20:06;4.70;;;3.13;;
13785;SDS011;47474;48.824;9.384;2024-02-21T01:22:33;6.50;;;3.17;;
13785;SDS011;47474;48.824;9.384;2024-02-21T01:24:59;6.27;;;3.20;;
13785;SDS011;47474;48.824;9.384;2024-02-21T01:27:26;7.37;;;3.40;;
13785;SDS011;47474;48.824;9.384;2024-02-21T01:29:53;7.00;;;3.47;;
13785;SDS011;47474;48.824;9.384;2024-02-21T01:32:21;8.50;;;3.63;;
13785;SDS011;47474;48.824;9.384;2024-02-21T01:34:49;8.63;;;3.10;;
13785;SDS011;47474;48.824;9.384;2024-02-21T01:37:15;5.20;;;3.13;;
13785;SDS011;47474;48.824;9.384;2024-02-21T01:39:42;7.37;;;2.60;;
13785;SDS011;47474;48.824;9.384;2024-02-21T01:42:08;4.67;;;2.70;;
13785;SDS011;47474;48.824;9.384;2024-02-21T01:44:35;5.93;;;2.93;;
13785;SDS011;47474;48.824;9.384;2024-02-21T01:47:03;5.37;;;2.90;;
13785;SDS011;47474;48.824;9.384;2024-02-21T01:49:31;4.17;;;2.87;;
13785;SDS011;47474;48.824;9.384;2024-02-21T01:51:57;8.17;;;3.60;;
13785;SDS011;47474;48.824;9.384;2024-02-21T01:54:24;7.30;;;3.07;;
13785;SDS011;47474;48.824;9.384;2024-02-21T01:56:53;4.73;;;2.90;;
13785;SDS011;47474;48.824;9.384;2024-02-21T01:59:20;4.47;;;2.60;;
13785;SDS011;47474;48.824;9.384;2024-02-21T02:01:47;6.97;;;3.13;;
13785;SDS011;47474;48.824;9.384;2024-02-21T02:04:16;10.23;;;3.67;;
13785;SDS011;47474;48.824;9.384;2024-02-21T02:06:44;5.17;;;3.70;;
13785;SDS011;47474;48.824;9.384;2024-02-21T02:09:11;5.03;;;2.73;;
13785;SDS011;47474;48.824;9.384;2024-02-21T02:11:37;9.03;;;3.40;;
13785;SDS011;47474;48.824;9.384;2024-02-21T02:14:04;5.40;;;2.60;;
13785;SDS011;47474;48.824;9.384;2024-02-21T02:16:31;6.63;;;3.00;;
13785;SDS011;47474;48.824;9.384;2024-02-21T02:18:57;5.70;;;3.13;;
13785;SDS011;47474;48.824;9.384;2024-02-21T02:21:26;4.20;;;2.90;;
13785;SDS011;47474;48.824;9.384;2024-02-21T02:23:58;6.50;;;3.13;;
13785;SDS011;47474;48.824;9.384;2024-02-21T02:26:25;4.47;;;2.97;;
13785;SDS011;47474;48.824;9.384;2024-02-21T02:28:52;5.70;;;3.00;;
13785;SDS011;47474;48.824;9.384;2024-02-21T02:31:19;4.23;;;2.40;;
13785;SDS011;47474;48.824;9.384;2024-02-21T02:33:45;6.00;;;2.97;;
13785;SDS011;47474;48.824;9.384;2024-02-21T02:36:13;5.40;;;3.03;;
13785;SDS011;47474;48.824;9.384;2024-02-21T02:38:39;7.63;;;3.03;;
13785;SDS011;47474;48.824;9.384;2024-02-21T02:41:07;5.87;;;2.90;;
13785;SDS011;47474;48.824;9.384;2024-02-21T02:43:33;7.40;;;2.80;;
13785;SDS011;47474;48.824;9.384;2024-02-21T02:46:01;6.60;;;2.83;;
13785;SDS011;47474;48.824;9.384;2024-02-21T02:48:28;4.97;;;3.20;;
13785;SDS011;47474;48.824;9.384;2024-02-21T02:50:55;4.07;;;2.60;;
13785;SDS011;47474;48.824;9.384;2024-02-21T02:53:21;5.00;;;2.87;;
13785;SDS011;47474;48.824;9.384;2024-02-21T02:55:48;5.37;;;3.10;;
13785;SDS011;47474;48.824;9.384;2024-02-21T02:58:15;7.03;;;2.80;;
13785;SDS011;47474;48.824;9.384;2024-02-21T03:00:42;5.57;;;2.73;;
13785;SDS011;47474;48.824;9.384;2024-02-21T03:03:08;4.13;;;2.80;;
13785;SDS011;47474;48.824;9.384;2024-02-21T03:05:35;7.17;;;3.03;;
13785;SDS011;47474;48.824;9.384;2024-02-21T03:08:01;5.60;;;3.07;;
13785;SDS011;47474;48.824;9.384;2024-02-21T03:10:31;4.33;;;2.50;;
13785;SDS011;47474;48.824;9.384;2024-02-21T03:12:58;6.43;;;3.13;;
13785;SDS011;47474;48.824;9.384;2024-02-21T03:15:26;6.67;;;2.73;;
13785;SDS011;47474;48.824;9.384;2024-02-21T03:17:52;11.67;;;3.17;;
13785;SDS011;47474;48.824;9.384;2024-02-21T03:20:19;7.90;;;2.70;;
13785;SDS011;47474;48.824;9.384;2024-02-21T03:22:45;4.97;;;2.83;;
13785;SDS011;47474;48.824;9.384;2024-02-21T03:25:12;9.03;;;3.30;;
13785;SDS011;47474;48.824;9.384;2024-02-21T03:27:40;7.40;;;3.07;;
13785;SDS011;47474;48.824;9.384;2024-02-21T03:30:07;4.03;;;2.87;;
13785;SDS011;47474;48.824;9.384;2024-02-21T03:32:35;8.53;;;2.87;;
13785;SDS011;47474;48.824;9.384;2024-02-21T03:35:03;5.80;;;2.63;;
13785;SDS011;47474;48.824;9.384;2024-02-21T03:37:30;4.40;;;2.80;;
13785;SDS011;47474;48.824;9.384;2024-02-21T03:39:56;4.77;;;3.20;;
13785;SDS011;47474;48.824;9.384;2024-02-21T03:42:25;4.80;;;2.80;;
13785;SDS011;47474;48.824;9.384;2024-02-21T03:44:54;5.60;;;2.60;;
13785;SDS011;47474;48.824;9.384;2024-02-21T03:47:21;5.83;;;2.60;;
13785;SDS011;47474;48.824;9.384;2024-02-21T03:49:49;5.43;;;2.57;;
13785;SDS011;47474;48.824;9.384;2024-02-21T03:52:15;7.50;;;2.67;;
13785;SDS011;47474;48.824;9.384;2024-02-21T03:54:42;5.43;;;2.87;;
13785;SDS011;47474;48.824;9.384;2024-02-21T03:57:09;6.07;;;2.13;;
13785;SDS011;47474;48.824;9.384;2024-02-21T03:59:36;4.80;;;2.50;;
13785;SDS011;47474;48.824;9.384;2024-02-21T04:02:04;4.97;;;2.57;;
13785;SDS011;47474;48.824;9.384;2024-02-21T04:04:33;6.60;;;2.73;;
13785;SDS011;47474;48.824;9.384;2024-02-21T04:07:01;3.90;;;2.50;;
13785;SDS011;47474;48.824;9.384;2024-02-21T04:09:31;7.20;;;3.03;;
13785;SDS011;47474;48.824;9.384;2024-02-21T04:11:58;6.73;;;2.70;;
13785;SDS011;47474;48.824;9.384;2024-02-21T04:14:24;5.97;;;2.77;;
13785;SDS011;47474;48.824;9.384;2024-02-21T04:16:51;8.07;;;2.37;;
13785;SDS011;47474;48.824;9.384;2024-02-21T04:19:17;5.73;;;2.17;;
13785;SDS011;47474;48.824;9.384;2024-02-21T04:21:44;4.07;;;2.43;;
13785;SDS011;47474;48.824;9.384;2024-02-21T04:24:12;8.67;;;3.20;;
13785;SDS011;47474;48.824;9.384;2024-02-21T04:26:38;4.73;;;2.70;;
13785;SDS011;47474;48.824;9.384;2024-02-21T04:29:05;6.17;;;2.63;;
13785;SDS011;47474;48.824;9.384;2024-02-21T04:31:32;6.57;;;2.50;;
13785;SDS011;47474;48.824;9.384;2024-02-21T04:33:59;3.93;;;2.13;;
13785;SDS011;47474;48.824;9.384;2024-02-21T04:36:27;4.70;;;2.60;;
13785;SDS011;47474;48.824;9.384;2024-02-21T04:38:54;6.87;;;2.33;;
13785;SDS011;47474;48.824;9.384;2024-02-21T04:41:22;6.40;;;2.77;;
13785;SDS011;47474;48.824;9.384;2024-02-21T04:43:48;6.30;;;2.60;;
13785;SDS011;47474;48.824;9.384;2024-02-21T04:46:15;4.83;;;2.73;;
13785;SDS011;47474;48.824;9.384;2024-02-21T04:48:41;7.73;;;3.27;;
13785;SDS011;47474;48.824;9.384;2024-02-21T04:51:08;6.67;;;2.53;;
13785;SDS011;47474;48.824;9.384;2024-02-21T04:53:35;3.43;;;2.10;;
13785;SDS011;47474;48.824;9.384;2024-02-21T04:56:02;4.00;;;2.27;;
13785;SDS011;47474;48.824;9.384;2024-02-21T04:58:30;5.13;;;2.17;;
13785;SDS011;47474;48.824;9.384;2024-02-21T05:00:56;4.63;;;2.63;;
13785;SDS011;47474;48.824;9.384;2024-02-21T05:03:23;4.03;;;2.20;;
13785;SDS011;47474;48.824;9.384;2024-02-21T05:05:50;3.83;;;2.67;;
13785;SDS011;47474;48.824;9.384;2024-02-21T05:08:16;4.93;;;2.13;;
13785;SDS011;47474;48.824;9.384;2024-02-21T05:10:43;4.57;;;2.60;;
13785;SDS011;47474;48.824;9.384;2024-02-21T05:13:10;4.23;;;2.37;;
13785;SDS011;47474;48.824;9.384;2024-02-21T05:15:38;5.70;;;2.17;;
13785;SDS011;47474;48.824;9.384;2024-02-21T05:18:05;3.07;;;2.10;;
13785;SDS011;47474;48.824;9.384;2024-02-21T05:20:31;10.17;;;2.93;;
13785;SDS011;47474;48.824;9.384;2024-02-21T05:22:58;4.03;;;2.40;;
13785;SDS011;47474;48.824;9.384;2024-02-21T05:25:24;6.03;;;2.57;;
13785;SDS011;47474;48.824;9.384;2024-02-21T05:27:51;4.03;;;2.13;;
13785;SDS011;47474;48.824;9.384;2024-02-21T05:30:18;5.83;;;2.20;;
13785;SDS011;47474;48.824;9.384;2024-02-21T05:32:46;6.73;;;2.40;;
13785;SDS011;47474;48.824;9.384;2024-02-21T05:35:13;5.43;;;2.60;;
13785;SDS011;47474;48.824;9.384;2024-02-21T05:37:40;5.27;;;2.40;;
13785;SDS011;47474;48.824;9.384;2024-02-21T05:40:06;5.50;;;2.80;;
13785;SDS011;47474;48.824;9.384;2024-02-21T05:42:33;4.77;;;2.33;;
13785;SDS011;47474;48.824;9.384;2024-02-21T05:45:00;3.53;;;2.30;;
13785;SDS011;47474;48.824;9.384;2024-02-21T05:47:26;4.47;;;2.67;;
13785;SDS011;47474;48.824;9.384;2024-02-21T05:49:55;5.27;;;3.10;;
13785;SDS011;47474;48.824;9.384;2024-02-21T05:52:22;5.80;;;2.63;;
13785;SDS011;47474;48.824;9.384;2024-02-21T05:54:48;4.20;;;2.40;;
13785;SDS011;47474;48.824;9.384;2024-02-21T05:57:16;3.30;;;2.33;;
13785;SDS011;47474;48.824;9.384;2024-02-21T05:59:43;5.23;;;2.83;;
13785;SDS011;47474;48.824;9.384;2024-02-21T06:02:09;6.83;;;3.13;;
13785;SDS011;47474;48.824;9.384;2024-02-21T06:04:36;6.30;;;3.13;;
13785;SDS011;47474;48.824;9.384;2024-02-21T06:07:04;8.53;;;3.73;;
13785;SDS011;47474;48.824;9.384;2024-02-21T06:09:30;6.77;;;3.40;;
13785;SDS011;47474;48.824;9.384;2024-02-21T06:11:57;5.47;;;3.00;;
13785;SDS011;47474;48.824;9.384;2024-02-21T06:14:23;5.83;;;3.53;;
13785;SDS011;47474;48.824;9.384;2024-02-21T06:16:49;5.20;;;3.43;;
13785;SDS011;47474;48.824;9.384;2024-02-21T06:19:16;9.03;;;3.40;;
13785;SDS011;47474;48.824;9.384;2024-02-21T06:21:42;5.47;;;3.40;;
13785;SDS011;47474;48.824;9.384;2024-02-21T06:24:10;5.23;;;3.37;;
13785;SDS011;47474;48.824;9.384;2024-02-21T06:26:37;7.77;;;3.47;;
13785;SDS011;47474;48.824;9.384;2024-02-21T06:29:05;7.57;;;3.73;;
13785;SDS011;47474;48.824;9.384;2024-02-21T06:31:31;4.53;;;3.40;;
13785;SDS011;47474;48.824;9.384;2024-02-21T06:33:58;4.80;;;2.90;;
13785;SDS011;47474;48.824;9.384;2024-02-21T06:36:24;4.80;;;2.93;;
13785;SDS011;47474;48.824;9.384;2024-02-21T06:38:51;6.47;;;3.77;;
13785;SDS011;47474;48.824;9.384;2024-02-21T06:41:18;5.53;;;3.20;;
13785;SDS011;47474;48.824;9.384;2024-02-21T06:43:45;5.03;;;3.27;;
13785;SDS011;47474;48.824;9.384;2024-02-21T06:46:11;4.63;;;3.10;;
13785;SDS011;47474;48.824;9.384;2024-02-21T06:48:38;5.97;;;2.73;;
13785;SDS011;47474;48.824;9.384;2024-02-21T06:51:04;4.30;;;3.00;;
13785;SDS011;47474;48.824;9.384;2024-02-21T06:53:31;7.30;;;3.70;;
13785;SDS011;47474;48.824;9.384;2024-02-21T06:55:57;4.73;;;2.53;;
13785;SDS011;47474;48.824;9.384;2024-02-21T06:58:25;4.10;;;2.70;;
13785;SDS011;47474;48.824;9.384;2024-02-21T07:00:51;4.37;;;2.20;;
13785;SDS011;47474;48.824;9.384;2024-02-21T07:03:18;6.83;;;3.33;;
13785;SDS011;47474;48.824;9.384;2024-02-21T07:05:44;5.43;;;3.07;;
13785;SDS011;47474;48.824;9.384;2024-02-21T07:08:11;6.17;;;2.80;;
13785;SDS011;47474;48.824;9.384;2024-02-21T07:10:37;4.93;;;2.40;;
13785;SDS011;47474;48.824;9.384;2024-02-21T07:13:04;4.37;;;2.53;;
13785;SDS011;47474;48.824;9.384;2024-02-21T07:15:31;5.10;;;2.90;;
13785;SDS011;47474;48.824;9.384;2024-02-21T07:17:58;4.90;;;2.57;;
13785;SDS011;47474;48.824;9.384;2024-02-21T07:20:25;9.00;;;3.13;;
13785;SDS011;47474;48.824;9.384;2024-02-21T07:22:51;7.70;;;3.37;;
13785;SDS011;47474;48.824;9.384;2024-02-21T07:25:17;6.13;;;3.20;;
13785;SDS011;47474;48.824;9.384;2024-02-21T07:27:44;3.93;;;3.20;;
13785;SDS011;47474;48.824;9.384;2024-02-21T07:30:11;6.77;;;3.90;;
13785;SDS011;47474;48.824;9.384;2024-02-21T07:32:39;9.43;;;4.23;;
13785;SDS011;47474;48.824;9.384;2024-02-21T07:35:06;7.87;;;3.87;;
13785;SDS011;47474;48.824;9.384;2024-02-21T07:37:35;7.80;;;3.90;;
13785;SDS011;47474;48.824;9.384;2024-02-21T07:40:02;7.07;;;3.90;;
13785;SDS011;47474;48.824;9.384;2024-02-21T07:42:29;8.07;;;3.63;;
13785;SDS011;47474;48.824;9.384;2024-02-21T07:44:56;9.30;;;3.23;;
13785;SDS011;47474;48.824;9.384;2024-02-21T07:47:22;6.53;;;3.10;;
13785;SDS011;47474;48.824;9.384;2024-02-21T07:49:50;4.70;;;3.13;;
13785;SDS011;47474;48.824;9.384;2024-02-21T07:52:17;5.20;;;3.27;;
13785;SDS011;47474;48.824;9.384;2024-02-21T07:54:43;4.60;;;3.27;;
13785;SDS011;47474;48.824;9.384;2024-02-21T07:57:10;5.67;;;3.33;;
13785;SDS011;47474;48.824;9.384;2024-02-21T07:59:36;5.17;;;3.20;;
13785;SDS011;47474;48.824;9.384;2024-02-21T08:02:03;4.87;;;2.63;;
13785;SDS011;47474;48.824;9.384;2024-02-21T08:04:31;7.70;;;3.30;;
13785;SDS011;47474;48.824;9.384;2024-02-21T08:07:00;4.03;;;2.67;;
13785;SDS011;47474;48.824;9.384;2024-02-21T08:09:29;7.50;;;3.00;;
13785;SDS011;47474;48.824;9.384;2024-02-21T08:11:55;3.17;;;2.37;;
13785;SDS011;47474;48.824;9.384;2024-02-21T08:14:22;5.63;;;2.40;;
13785;SDS011;47474;48.824;9.384;2024-02-21T08:16:49;4.03;;;2.60;;
13785;SDS011;47474;48.824;9.384;2024-02-21T08:19:16;11.13;;;3.00;;
13785;SDS011;47474;48.824;9.384;2024-02-21T08:21:43;5.27;;;2.90;;
13785;SDS011;47474;48.824;9.384;2024-02-21T08:24:13;9.80;;;3.03;;
13785;SDS011;47474;48.824;9.384;2024-02-21T08:26:40;6.93;;;2.83;;
13785;SDS011;47474;48.824;9.384;2024-02-21T08:29:06;5.43;;;2.93;;
13785;SDS011;47474;48.824;9.384;2024-02-21T08:31:33;5.13;;;2.83;;
13785;SDS011;47474;48.824;9.384;2024-02-21T08:33:59;5.60;;;3.13;;
13785;SDS011;47474;48.824;9.384;2024-02-21T08:36:28;9.80;;;5.07;;
13785;SDS011;47474;48.824;9.384;2024-02-21T08:38:57;7.17;;;3.73;;
13785;SDS011;47474;48.824;9.384;2024-02-21T08:41:25;3.97;;;3.57;;
13785;SDS011;47474;48.824;9.384;2024-02-21T08:43:52;6.03;;;3.77;;
13785;SDS011;47474;48.824;9.384;2024-02-21T08:46:19;4.37;;;3.07;;
13785;SDS011;47474;48.824;9.384;2024-02-21T08:48:46;4.10;;;2.97;;
13785;SDS011;47474;48.824;9.384;2024-02-21T08:51:13;4.70;;;2.57;;
13785;SDS011;47474;48.824;9.384;2024-02-21T08:53:39;7.57;;;3.00;;
13785;SDS011;47474;48.824;9.384;2024-02-21T08:56:06;5.70;;;2.80;;
13785;SDS011;47474;48.824;9.384;2024-02-21T08:58:34;7.00;;;2.83;;
13785;SDS011;47474;48.824;9.384;2024-02-21T09:01:02;8.27;;;2.87;;
13785;SDS011;47474;48.824;9.384;2024-02-21T09:03:30;4.93;;;2.73;;
13785;SDS011;47474;48.824;9.384;2024-02-21T09:05:57;10.90;;;7.60;;
13785;SDS011;47474;48.824;9.384;2024-02-21T09:08:24;14.70;;;7.40;;
13785;SDS011;47474;48.824;9.384;2024-02-21T09:10:50;6.97;;;3.40;;
13785;SDS011;47474;48.824;9.384;2024-02-21T09:13:17;4.23;;;2.73;;
13785;SDS011;47474;48.824;9.384;2024-02-21T09:15:45;6.53;;;2.00;;
13785;SDS011;47474;48.824;9.384;2024-02-21T09:18:11;5.93;;;2.47;;
13785;SDS011;47474;48.824;9.384;2024-02-21T09:20:38;5.03;;;2.10;;
13785;SDS011;47474;48.824;9.384;2024-02-21T09:23:04;3.60;;;2.23;;
13785;SDS011;47474;48.824;9.384;2024-02-21T09:25:30;4.10;;;2.20;;
13785;SDS011;47474;48.824;9.384;2024-02-21T09:27:57;6.23;;;2.33;;
13785;SDS011;47474;48.824;9.384;2024-02-21T09:30:24;6.40;;;2.00;;
13785;SDS011;47474;48.824;9.384;2024-02-21T09:32:52;3.60;;;2.30;;
13785;SDS011;47474;48.824;9.384;2024-02-21T09:35:18;5.40;;;2.97;;
13785;SDS011;47474;48.824;9.384;2024-02-21T09:37:47;5.67;;;2.60;;
13785;SDS011;47474;48.824;9.384;2024-02-21T09:40:14;5.47;;;2.60;;
13785;SDS011;47474;48.824;9.384;2024-02-21T09:42:42;8.17;;;2.43;;
13785;SDS011;47474;48.824;9.384;2024-02-21T09:45:10;6.07;;;2.67;;
13785;SDS011;47474;48.824;9.384;2024-02-21T09:47:43;6.77;;;3.27;;
13785;SDS011;47474;48.824;9.384;2024-02-21T09:50:17;6.87;;;2.50;;
13785;SDS011;47474;48.824;9.384;2024-02-21T09:52:46;5.47;;;2.40;;
13785;SDS011;47474;48.824;9.384;2024-02-21T09:55:13;6.67;;;2.50;;
13785;SDS011;47474;48.824;9.384;2024-02-21T09:57:40;4.93;;;2.50;;
13785;SDS011;47474;48.824;9.384;2024-02-21T10:00:07;6.27;;;2.40;;
13785;SDS011;47474;48.824;9.384;2024-02-21T10:02:34;3.87;;;2.03;;
13785;SDS011;47474;48.824;9.384;2024-02-21T10:05:00;6.43;;;2.47;;
13785;SDS011;47474;48.824;9.384;2024-02-21T10:07:30;5.63;;;2.50;;
13785;SDS011;47474;48.824;9.384;2024-02-21T10:10:01;8.73;;;2.33;;
13785;SDS011;47474;48.824;9.384;2024-02-21T10:12:28;3.37;;;1.90;;
13785;SDS011;47474;48.824;9.384;2024-02-21T10:14:59;8.13;;;2.83;;
13785;SDS011;47474;48.824;9.384;2024-02-21T10:17:26;8.73;;;3.17;;
13785;SDS011;47474;48.824;9.384;2024-02-21T10:19:53;5.60;;;2.93;;
13785;SDS011;47474;48.824;9.384;2024-02-21T10:22:19;5.50;;;2.30;;
13785;SDS011;47474;48.824;9.384;2024-02-21T10:24:47;4.57;;;2.20;;
13785;SDS011;47474;48.824;9.384;2024-02-21T10:27:14;3.50;;;2.30;;
13785;SDS011;47474;48.824;9.384;2024-02-21T10:29:40;7.27;;;3.27;;
13785;SDS011;47474;48.824;9.384;2024-02-21T10:32:08;5.93;;;2.53;;
13785;SDS011;47474;48.824;9.384;2024-02-21T10:34:36;6.87;;;2.63;;
13785;SDS011;47474;48.824;9.384;2024-02-21T10:37:03;5.10;;;2.30;;
13785;SDS011;47474;48.824;9.384;2024-02-21T10:39:30;4.87;;;2.50;;
13785;SDS011;47474;48.824;9.384;2024-02-21T10:41:59;3.60;;;2.10;;
13785;SDS011;47474;48.824;9.384;2024-02-21T10:44:29;4.17;;;2.33;;
13785;SDS011;47474;48.824;9.384;2024-02-21T10:46:56;3.00;;;1.80;;
13785;SDS011;47474;48.824;9.384;2024-02-21T10:49:23;5.43;;;2.30;;
13785;SDS011;47474;48.824;9.384;2024-02-21T10:51:53;3.53;;;2.50;;
13785;SDS011;47474;48.824;9.384;2024-02-21T10:54:28;5.30;;;2.63;;
13785;SDS011;47474;48.824;9.384;2024-02-21T10:57:02;5.87;;;2.20;;
13785;SDS011;47474;48.824;9.384;2024-02-21T10:59:29;2.92;;;1.88;;
13785;SDS011;47474;48.824;9.384;2024-02-21T11:01:57;7.30;;;2.60;;
13785;SDS011;47474;48.824;9.384;2024-02-21T11:04:23;3.63;;;2.30;;
13785;SDS011;47474;48.824;9.384;2024-02-21T11:06:50;2.88;;;1.67;;
13785;SDS011;47474;48.824;9.384;2024-02-21T11:09:17;3.80;;;1.90;;
13785;SDS011;47474;48.824;9.384;2024-02-21T11:11:43;4.82;;;1.95;;
13785;SDS011;47474;48.824;9.384;2024-02-21T11:14:18;3.30;;;1.90;;
13785;SDS011;47474;48.824;9.384;2024-02-21T11:16:45;5.30;;;2.17;;
13785;SDS011;47474;48.824;9.384;2024-02-21T11:19:18;3.97;;;2.20;;
13785;SDS011;47474;48.824;9.384;2024-02-21T11:21:46;3.67;;;1.95;;
13785;SDS011;47474;48.824;9.384;2024-02-21T11:24:13;5.65;;;2.58;;
13785;SDS011;47474;48.824;9.384;2024-02-21T11:26:40;4.88;;;2.10;;
13785;SDS011;47474;48.824;9.384;2024-02-21T11:29:07;2.65;;;1.90;;
13785;SDS011;47474;48.824;9.384;2024-02-21T11:31:39;3.03;;;1.80;;
13785;SDS011;47474;48.824;9.384;2024-02-21T11:34:10;4.68;;;2.00;;
13785;SDS011;47474;48.824;9.384;2024-02-21T11:36:39;3.10;;;1.65;;
13785;SDS011;47474;48.824;9.384;2024-02-21T11:39:12;6.97;;;2.22;;
13785;SDS011;47474;48.824;9.384;2024-02-21T11:41:38;8.65;;;3.80;;
13785;SDS011;47474;48.824;9.384;2024-02-21T11:44:05;5.75;;;3.00;;
13785;SDS011;47474;48.824;9.384;2024-02-21T11:46:31;6.32;;;3.53;;
13785;SDS011;47474;48.824;9.384;2024-02-21T11:48:59;4.18;;;2.33;;
13785;SDS011;47474;48.824;9.384;2024-02-21T11:51:27;5.35;;;2.25;;
13785;SDS011;47474;48.824;9.384;2024-02-21T11:53:53;2.30;;;1.65;;
13785;SDS011;47474;48.824;9.384;2024-02-21T11:56:19;4.93;;;2.03;;
13785;SDS011;47474;48.824;9.384;2024-02-21T11:58:47;5.15;;;2.47;;
13785;SDS011;47474;48.824;9.384;2024-02-21T12:01:14;9.27;;;5.15;;
13785;SDS011;47474;48.824;9.384;2024-02-21T12:03:41;8.43;;;3.92;;
13785;SDS011;47474;48.824;9.384;2024-02-21T12:06:16;7.82;;;4.95;;
13785;SDS011;47474;48.824;9.384;2024-02-21T12:08:46;6.40;;;2.58;;
13785;SDS011;47474;48.824;9.384;2024-02-21T12:11:16;3.10;;;1.70;;
13785;SDS011;47474;48.824;9.384;2024-02-21T12:13:44;4.05;;;1.83;;
13785;SDS011;47474;48.824;9.384;2024-02-21T12:16:12;5.15;;;1.60;;
13785;SDS011;47474;48.824;9.384;2024-02-21T12:18:41;3.85;;;1.60;;
13785;SDS011;47474;48.824;9.384;2024-02-21T12:21:08;4.63;;;1.42;;
13785;SDS011;47474;48.824;9.384;2024-02-21T12:23:37;3.90;;;2.80;;
13785;SDS011;47474;48.824;9.384;2024-02-21T12:26:04;2.35;;;1.80;;
13785;SDS011;47474;48.824;9.384;2024-02-21T12:28:30;3.40;;;1.88;;
13785;SDS011;47474;48.824;9.384;2024-02-21T12:30:57;2.97;;;1.58;;
13785;SDS011;47474;48.824;9.384;2024-02-21T12:33:23;2.30;;;1.33;;
13785;SDS011;47474;48.824;9.384;2024-02-21T12:35:50;4.80;;;1.65;;
13785;SDS011;47474;48.824;9.384;2024-02-21T12:38:16;4.80;;;1.90;;
13785;SDS011;47474;48.824;9.384;2024-02-21T12:40:47;6.70;;;1.80;;
13785;SDS011;47474;48.824;9.384;2024-02-21T12:43:13;2.38;;;1.70;;
13785;SDS011;47474;48.824;9.384;2024-02-21T12:45:39;3.63;;;1.63;;
13785;SDS011;47474;48.824;9.384;2024-02-21T12:48:06;4.80;;;1.73;;
13785;SDS011;47474;48.824;9.384;2024-02-21T12:50:33;2.15;;;1.40;;
13785;SDS011;47474;48.824;9.384;2024-02-21T12:52:59;3.03;;;1.20;;
13785;SDS011;47474;48.824;9.384;2024-02-21T12:55:26;2.42;;;1.65;;
13785;SDS011;47474;48.824;9.384;2024-02-21T12:57:54;2.20;;;1.27;;
13785;SDS011;47474;48.824;9.384;2024-02-21T13:00:20;1.98;;;1.30;;
13785;SDS011;47474;48.824;9.384;2024-02-21T13:02:51;3.42;;;2.13;;
13785;SDS011;47474;48.824;9.384;2024-02-21T13:05:17;4.30;;;1.30;;
13785;SDS011;47474;48.824;9.384;2024-02-21T13:07:44;4.88;;;1.50;;
13785;SDS011;47474;48.824;9.384;2024-02-21T13:10:10;3.90;;;1.85;;
13785;SDS011;47474;48.824;9.384;2024-02-21T13:12:37;2.75;;;1.63;;
13785;SDS011;47474;48.824;9.384;2024-02-21T13:15:05;3.90;;;2.08;;
13785;SDS011;47474;48.824;9.384;2024-02-21T13:17:36;8.23;;;4.90;;
13785;SDS011;47474;48.824;9.384;2024-02-21T13:20:03;10.23;;;7.13;;
13785;SDS011;47474;48.824;9.384;2024-02-21T13:22:30;8.93;;;5.07;;
13785;SDS011;47474;48.824;9.384;2024-02-21T13:24:57;5.57;;;3.03;;
13785;SDS011;47474;48.824;9.384;2024-02-21T13:27:23;3.63;;;2.30;;
13785;SDS011;47474;48.824;9.384;2024-02-21T13:29:50;5.45;;;2.63;;
13785;SDS011;47474;48.824;9.384;2024-02-21T13:32:19;5.00;;;3.95;;
13785;SDS011;47474;48.824;9.384;2024-02-21T13:34:46;6.82;;;3.35;;
13785;SDS011;47474;48.824;9.384;2024-02-21T13:37:13;5.75;;;4.88;;
13785;SDS011;47474;48.824;9.384;2024-02-21T13:39:40;7.07;;;5.03;;
13785;SDS011;47474;48.824;9.384;2024-02-21T13:42:06;21.95;;;14.15;;
13785;SDS011;47474;48.824;9.384;2024-02-21T13:44:33;29.80;;;19.70;;
13785;SDS011;47474;48.824;9.384;2024-02-21T13:46:59;57.95;;;36.45;;
13785;SDS011;47474;48.824;9.384;2024-02-21T13:49:27;19.23;;;13.18;;
13785;SDS011;47474;48.824;9.384;2024-02-21T13:51:55;5.38;;;4.18;;
13785;SDS011;47474;48.824;9.384;2024-02-21T13:54:22;4.32;;;1.60;;
13785;SDS011;47474;48.824;9.384;2024-02-21T13:56:48;2.45;;;1.45;;
13785;SDS011;47474;48.824;9.384;2024-02-21T13:59:15;5.20;;;1.52;;
13785;SDS011;47474;48.824;9.384;2024-02-21T14:01:43;3.50;;;1.70;;
13785;SDS011;47474;48.824;9.384;2024-02-21T14:04:09;6.03;;;2.10;;
13785;SDS011;47474;48.824;9.384;2024-02-21T14:06:37;3.83;;;2.15;;
13785;SDS011;47474;48.824;9.384;2024-02-21T14:09:08;3.08;;;1.60;;
13785;SDS011;47474;48.824;9.384;2024-02-21T14:11:34;2.08;;;1.42;;
13785;SDS011;47474;48.824;9.384;2024-02-21T14:14:02;2.08;;;1.35;;
13785;SDS011;47474;48.824;9.384;2024-02-21T14:16:29;4.03;;;1.50;;
13785;SDS011;47474;48.824;9.384;2024-02-21T14:18:56;1.80;;;1.23;;
13785;SDS011;47474;48.824;9.384;2024-02-21T14:21:22;2.67;;;1.15;;
13785;SDS011;47474;48.824;9.384;2024-02-21T14:23:50;2.55;;;1.40;;
13785;SDS011;47474;48.824;9.384;2024-02-21T14:26:17;1.50;;;1.10;;
13785;SDS011;47474;48.824;9.384;2024-02-21T14:28:44;3.20;;;1.20;;
13785;SDS011;47474;48.824;9.384;2024-02-21T14:31:10;1.58;;;1.20;;
13785;SDS011;47474;48.824;9.384;2024-02-21T14:33:37;1.60;;;1.30;;
13785;SDS011;47474;48.824;9.384;2024-02-21T14:36:04;2.63;;;1.45;;
13785;SDS011;47474;48.824;9.384;2024-02-21T14:38:30;1.30;;;1.10;;
13785;SDS011;47474;48.824;9.384;2024-02-21T14:40:58;3.25;;;1.20;;
13785;SDS011;47474;48.824;9.384;2024-02-21T14:43:25;1.45;;;1.25;;
13785;SDS011;47474;48.824;9.384;2024-02-21T14:45:53;2.08;;;1.52;;
13785;SDS011;47474;48.824;9.384;2024-02-21T14:48:20;2.17;;;1.70;;